createdAt,value
2018-07-02T18:45:53.958Z,21.60
2018-07-02T18:48:22.157Z,21.50
2018-07-02T18:50:50.397Z,21.40
2018-07-02T18:53:18.619Z,21.40
2018-07-02T18:55:46.792Z,21.40
2018-07-02T18:58:15.045Z,21.30
2018-07-02T19:00:43.276Z,21.20
2018-07-02T19:03:11.542Z,21.20
2018-07-02T19:05:40.465Z,21.20
2018-07-02T19:08:08.777Z,21.00
2018-07-02T19:10:37.018Z,20.90
2018-07-02T19:13:05.545Z,20.90
2018-07-02T19:15:33.772Z,20.70
2018-07-02T19:18:01.965Z,20.70
2018-07-02T19:20:30.303Z,20.60
2018-07-02T19:22:58.589Z,20.60
2018-07-02T19:25:26.790Z,20.50
2018-07-02T19:30:24.953Z,20.30
2018-07-02T19:32:53.168Z,20.10
2018-07-02T19:35:21.338Z,20.00
2018-07-02T19:37:49.547Z,19.90
2018-07-02T19:40:19.220Z,19.90
2018-07-02T19:42:48.281Z,19.90
2018-07-02T19:45:16.548Z,19.90
2018-07-02T19:47:45.326Z,20.00
2018-07-02T19:50:13.540Z,20.00
2018-07-02T19:52:42.580Z,19.90
2018-07-02T19:55:10.849Z,19.80
2018-07-02T19:57:39.103Z,19.80
2018-07-02T20:00:07.364Z,19.70
2018-07-02T20:02:35.629Z,19.60
2018-07-02T20:05:03.960Z,19.50
2018-07-02T20:07:32.178Z,19.50
2018-07-02T20:10:00.403Z,19.30
2018-07-02T20:12:28.637Z,19.20
2018-07-02T20:14:56.830Z,19.20
2018-07-02T20:17:25.037Z,19.10
2018-07-02T20:19:53.256Z,19.20
2018-07-02T20:22:21.500Z,19.00
2018-07-02T20:24:49.673Z,18.80
2018-07-02T20:27:17.909Z,18.70
2018-07-02T20:29:46.101Z,18.40
2018-07-02T20:32:14.384Z,18.20
2018-07-02T20:34:42.650Z,18.10
2018-07-02T20:37:10.881Z,18.10
2018-07-02T20:39:39.073Z,18.10
2018-07-02T20:42:07.276Z,18.10
2018-07-02T20:44:35.553Z,18.10
2018-07-02T20:47:03.806Z,18.30
2018-07-02T20:49:32.061Z,18.30
2018-07-02T20:52:00.274Z,18.50
2018-07-02T20:54:28.484Z,18.50
2018-07-02T20:56:56.709Z,18.50
2018-07-02T20:59:24.917Z,18.50
2018-07-02T21:01:53.161Z,18.30
2018-07-02T21:04:21.352Z,18.20
2018-07-02T21:06:49.584Z,18.10
2018-07-02T21:09:17.832Z,18.10
2018-07-02T21:11:46.028Z,18.20
2018-07-02T21:14:14.236Z,18.30
2018-07-02T21:16:42.405Z,18.40
2018-07-02T21:19:10.658Z,18.40
2018-07-02T21:21:38.853Z,18.40
2018-07-02T21:24:07.138Z,18.10
2018-07-02T21:26:35.342Z,17.80
2018-07-02T21:29:03.646Z,17.60
2018-07-02T21:31:31.838Z,17.50
2018-07-02T21:34:00.102Z,17.70
2018-07-02T21:36:28.313Z,17.70
2018-07-02T21:38:56.512Z,17.70
2018-07-02T21:41:24.788Z,17.70
2018-07-02T21:43:53.071Z,17.70
2018-07-02T21:46:21.355Z,17.50
2018-07-02T21:48:49.589Z,17.30
2018-07-02T21:51:19.314Z,17.10
2018-07-02T21:53:47.541Z,17.00
2018-07-02T21:56:15.749Z,17.10
2018-07-02T21:58:43.921Z,17.10
2018-07-02T22:01:12.969Z,17.10
2018-07-02T22:03:41.128Z,17.30
2018-07-02T22:06:09.331Z,17.30
2018-07-02T22:08:37.548Z,17.40
2018-07-02T22:11:05.801Z,17.30
2018-07-02T22:13:34.006Z,17.10
2018-07-02T22:16:02.242Z,17.00
2018-07-02T22:18:30.488Z,17.00
2018-07-02T22:20:59.699Z,17.00
2018-07-02T22:23:27.919Z,16.60
2018-07-02T22:28:24.113Z,16.10
2018-07-02T22:30:52.348Z,16.10
2018-07-02T22:33:20.548Z,16.30
2018-07-02T22:35:48.746Z,16.40
2018-07-02T22:38:16.955Z,16.50
2018-07-02T22:40:45.160Z,16.60
2018-07-02T22:43:13.379Z,16.60
2018-07-02T22:45:41.672Z,16.70
2018-07-02T22:48:09.880Z,16.50
2018-07-02T22:50:38.171Z,16.10
2018-07-02T22:53:06.597Z,16.00
2018-07-02T22:55:45.794Z,15.80
2018-07-02T22:58:14.000Z,15.80
2018-07-02T23:00:42.188Z,16.00
2018-07-02T23:03:10.376Z,16.10
2018-07-02T23:05:38.533Z,16.00
2018-07-02T23:08:06.762Z,16.00
2018-07-02T23:10:34.919Z,15.90
2018-07-02T23:13:03.199Z,16.00
2018-07-02T23:15:31.412Z,16.10
2018-07-02T23:17:59.665Z,16.00
2018-07-02T23:20:27.976Z,16.10
2018-07-02T23:23:00.066Z,16.20
2018-07-02T23:25:28.957Z,16.20
2018-07-02T23:27:58.675Z,16.00
2018-07-02T23:30:27.592Z,15.90
2018-07-02T23:32:55.761Z,15.70
2018-07-02T23:35:24.025Z,15.80
2018-07-02T23:37:52.465Z,15.80
2018-07-02T23:40:22.345Z,15.80
2018-07-02T23:42:51.796Z,15.70
2018-07-02T23:45:20.876Z,15.70
2018-07-02T23:47:49.197Z,15.80
2018-07-02T23:50:17.408Z,15.90
2018-07-02T23:52:45.577Z,15.60
2018-07-02T23:55:13.791Z,15.20
2018-07-02T23:57:41.969Z,15.00
